sensor_id;sensor_type;location;lat;lon;timestamp;P1;durP1;ratioP1;P2;durP2;ratioP2
15996;SDS011;8103;51.340;12.326;2022-08-25T00:01:15;8.23;;;7.43;;
15996;SDS011;8103;51.340;12.326;2022-08-25T00:03:44;7.78;;;6.97;;
15996;SDS011;8103;51.340;12.326;2022-08-25T00:06:11;8.77;;;6.75;;
15996;SDS011;8103;51.340;12.326;2022-08-25T00:08:39;11.25;;;8.02;;
15996;SDS011;8103;51.340;12.326;2022-08-25T00:11:07;9.55;;;8.02;;
15996;SDS011;8103;51.340;12.326;2022-08-25T00:13:42;8.70;;;7.82;;
15996;SDS011;8103;51.340;12.326;2022-08-25T00:16:12;8.85;;;8.00;;
15996;SDS011;8103;51.340;12.326;2022-08-25T00:18:42;9.93;;;8.43;;
15996;SDS011;8103;51.340;12.326;2022-08-25T00:21:13;7.40;;;6.57;;
15996;SDS011;8103;51.340;12.326;2022-08-25T00:23:41;7.85;;;7.10;;
15996;SDS011;8103;51.340;12.326;2022-08-25T00:26:09;8.85;;;7.95;;
15996;SDS011;8103;51.340;12.326;2022-08-25T00:28:36;9.20;;;8.25;;
15996;SDS011;8103;51.340;12.326;2022-08-25T00:31:05;9.77;;;8.23;;
15996;SDS011;8103;51.340;12.326;2022-08-25T00:33:32;8.52;;;7.65;;
15996;SDS011;8103;51.340;12.326;2022-08-25T00:35:59;8.50;;;7.70;;
15996;SDS011;8103;51.340;12.326;2022-08-25T00:38:26;8.88;;;8.02;;
15996;SDS011;8103;51.340;12.326;2022-08-25T00:40:53;9.18;;;8.27;;
15996;SDS011;8103;51.340;12.326;2022-08-25T00:46:29;16.85;;;12.85;;
15996;SDS011;8103;51.340;12.326;2022-08-25T00:49:01;13.13;;;10.50;;
15996;SDS011;8103;51.340;12.326;2022-08-25T00:51:35;13.57;;;11.15;;
15996;SDS011;8103;51.340;12.326;2022-08-25T00:54:11;12.68;;;9.75;;
15996;SDS011;8103;51.340;12.326;2022-08-25T00:56:43;11.43;;;9.98;;
15996;SDS011;8103;51.340;12.326;2022-08-25T00:59:12;10.65;;;9.40;;
15996;SDS011;8103;51.340;12.326;2022-08-25T01:01:39;11.13;;;10.02;;
15996;SDS011;8103;51.340;12.326;2022-08-25T01:04:06;10.38;;;9.27;;
15996;SDS011;8103;51.340;12.326;2022-08-25T01:06:35;10.02;;;8.60;;
15996;SDS011;8103;51.340;12.326;2022-08-25T01:09:05;9.93;;;9.00;;
15996;SDS011;8103;51.340;12.326;2022-08-25T01:11:33;10.60;;;8.95;;
15996;SDS011;8103;51.340;12.326;2022-08-25T01:14:01;10.93;;;9.15;;
15996;SDS011;8103;51.340;12.326;2022-08-25T01:16:35;10.90;;;9.80;;
15996;SDS011;8103;51.340;12.326;2022-08-25T01:19:07;9.15;;;8.25;;
15996;SDS011;8103;51.340;12.326;2022-08-25T01:21:40;10.02;;;9.02;;
15996;SDS011;8103;51.340;12.326;2022-08-25T01:24:10;10.52;;;9.52;;
15996;SDS011;8103;51.340;12.326;2022-08-25T01:26:59;9.65;;;8.68;;
15996;SDS011;8103;51.340;12.326;2022-08-25T01:29:26;11.00;;;9.65;;
15996;SDS011;8103;51.340;12.326;2022-08-25T01:31:57;11.38;;;10.13;;
15996;SDS011;8103;51.340;12.326;2022-08-25T01:34:28;9.90;;;9.00;;
15996;SDS011;8103;51.340;12.326;2022-08-25T01:36:57;10.73;;;9.82;;
15996;SDS011;8103;51.340;12.326;2022-08-25T01:39:25;11.52;;;9.13;;
15996;SDS011;8103;51.340;12.326;2022-08-25T01:42:02;11.35;;;10.25;;
15996;SDS011;8103;51.340;12.326;2022-08-25T01:44:34;11.52;;;10.43;;
15996;SDS011;8103;51.340;12.326;2022-08-25T01:47:04;11.15;;;10.07;;
15996;SDS011;8103;51.340;12.326;2022-08-25T01:49:32;14.32;;;11.00;;
15996;SDS011;8103;51.340;12.326;2022-08-25T01:52:01;10.93;;;9.73;;
15996;SDS011;8103;51.340;12.326;2022-08-25T01:54:39;11.05;;;9.95;;
15996;SDS011;8103;51.340;12.326;2022-08-25T01:57:06;12.40;;;10.35;;
15996;SDS011;8103;51.340;12.326;2022-08-25T01:59:34;13.27;;;10.38;;
15996;SDS011;8103;51.340;12.326;2022-08-25T02:02:02;14.10;;;9.30;;
15996;SDS011;8103;51.340;12.326;2022-08-25T02:04:30;12.15;;;10.90;;
15996;SDS011;8103;51.340;12.326;2022-08-25T02:06:58;12.82;;;10.35;;
15996;SDS011;8103;51.340;12.326;2022-08-25T02:09:26;11.82;;;10.25;;
15996;SDS011;8103;51.340;12.326;2022-08-25T02:11:53;14.00;;;11.70;;
15996;SDS011;8103;51.340;12.326;2022-08-25T02:14:22;13.52;;;10.82;;
15996;SDS011;8103;51.340;12.326;2022-08-25T02:16:49;11.63;;;10.52;;
15996;SDS011;8103;51.340;12.326;2022-08-25T02:19:18;12.45;;;10.32;;
15996;SDS011;8103;51.340;12.326;2022-08-25T02:21:46;11.05;;;10.05;;
15996;SDS011;8103;51.340;12.326;2022-08-25T02:24:13;16.13;;;10.82;;
15996;SDS011;8103;51.340;12.326;2022-08-25T02:26:40;11.38;;;10.23;;
15996;SDS011;8103;51.340;12.326;2022-08-25T02:29:08;10.68;;;9.65;;
15996;SDS011;8103;51.340;12.326;2022-08-25T02:31:36;12.73;;;10.15;;
15996;SDS011;8103;51.340;12.326;2022-08-25T02:34:03;10.82;;;9.70;;
15996;SDS011;8103;51.340;12.326;2022-08-25T02:36:31;11.98;;;10.80;;
15996;SDS011;8103;51.340;12.326;2022-08-25T02:38:58;14.27;;;11.52;;
15996;SDS011;8103;51.340;12.326;2022-08-25T02:41:25;12.52;;;11.35;;
15996;SDS011;8103;51.340;12.326;2022-08-25T02:43:53;12.20;;;11.02;;
15996;SDS011;8103;51.340;12.326;2022-08-25T02:46:21;12.23;;;10.95;;
15996;SDS011;8103;51.340;12.326;2022-08-25T02:48:50;11.18;;;10.07;;
15996;SDS011;8103;51.340;12.326;2022-08-25T02:51:19;13.10;;;11.70;;
15996;SDS011;8103;51.340;12.326;2022-08-25T02:53:47;12.90;;;11.60;;
15996;SDS011;8103;51.340;12.326;2022-08-25T02:56:15;13.25;;;12.00;;
15996;SDS011;8103;51.340;12.326;2022-08-25T02:58:43;15.05;;;11.57;;
15996;SDS011;8103;51.340;12.326;2022-08-25T03:01:11;12.48;;;10.43;;
15996;SDS011;8103;51.340;12.326;2022-08-25T03:03:40;15.63;;;13.45;;
15996;SDS011;8103;51.340;12.326;2022-08-25T03:06:10;14.10;;;12.50;;
15996;SDS011;8103;51.340;12.326;2022-08-25T03:08:39;14.10;;;12.60;;
15996;SDS011;8103;51.340;12.326;2022-08-25T03:11:07;14.77;;;13.15;;
15996;SDS011;8103;51.340;12.326;2022-08-25T03:13:35;15.57;;;13.00;;
15996;SDS011;8103;51.340;12.326;2022-08-25T03:16:03;13.90;;;12.48;;
15996;SDS011;8103;51.340;12.326;2022-08-25T03:18:35;13.52;;;12.10;;
15996;SDS011;8103;51.340;12.326;2022-08-25T03:21:03;12.02;;;10.93;;
15996;SDS011;8103;51.340;12.326;2022-08-25T03:23:30;14.23;;;11.93;;
15996;SDS011;8103;51.340;12.326;2022-08-25T03:25:56;14.68;;;13.15;;
15996;SDS011;8103;51.340;12.326;2022-08-25T03:28:42;12.98;;;11.57;;
15996;SDS011;8103;51.340;12.326;2022-08-25T03:31:09;13.55;;;11.77;;
15996;SDS011;8103;51.340;12.326;2022-08-25T03:33:36;12.73;;;11.55;;
15996;SDS011;8103;51.340;12.326;2022-08-25T03:36:03;14.00;;;11.85;;
15996;SDS011;8103;51.340;12.326;2022-08-25T03:38:31;14.73;;;12.57;;
15996;SDS011;8103;51.340;12.326;2022-08-25T03:40:58;13.23;;;11.95;;
15996;SDS011;8103;51.340;12.326;2022-08-25T03:43:25;13.75;;;11.00;;
15996;SDS011;8103;51.340;12.326;2022-08-25T03:45:51;16.60;;;12.35;;
15996;SDS011;8103;51.340;12.326;2022-08-25T03:48:18;14.02;;;12.35;;
15996;SDS011;8103;51.340;12.326;2022-08-25T03:50:46;14.75;;;12.93;;
15996;SDS011;8103;51.340;12.326;2022-08-25T03:53:16;13.77;;;12.38;;
15996;SDS011;8103;51.340;12.326;2022-08-25T03:55:43;13.77;;;12.25;;
15996;SDS011;8103;51.340;12.326;2022-08-25T03:58:10;13.82;;;12.27;;
15996;SDS011;8103;51.340;12.326;2022-08-25T04:00:37;16.05;;;12.95;;
15996;SDS011;8103;51.340;12.326;2022-08-25T04:03:04;14.68;;;13.23;;
15996;SDS011;8103;51.340;12.326;2022-08-25T04:05:31;14.52;;;13.00;;
15996;SDS011;8103;51.340;12.326;2022-08-25T04:07:58;13.52;;;12.20;;
15996;SDS011;8103;51.340;12.326;2022-08-25T04:10:27;16.65;;;13.55;;
15996;SDS011;8103;51.340;12.326;2022-08-25T04:12:54;13.73;;;12.43;;
15996;SDS011;8103;51.340;12.326;2022-08-25T04:15:21;13.45;;;12.23;;
15996;SDS011;8103;51.340;12.326;2022-08-25T04:17:49;15.80;;;12.90;;
15996;SDS011;8103;51.340;12.326;2022-08-25T04:20:17;14.20;;;12.77;;
15996;SDS011;8103;51.340;12.326;2022-08-25T04:22:44;15.43;;;12.45;;
15996;SDS011;8103;51.340;12.326;2022-08-25T04:25:11;16.63;;;13.23;;
15996;SDS011;8103;51.340;12.326;2022-08-25T04:27:39;15.13;;;13.30;;
15996;SDS011;8103;51.340;12.326;2022-08-25T04:30:06;21.08;;;12.48;;
15996;SDS011;8103;51.340;12.326;2022-08-25T04:32:34;13.25;;;11.82;;
15996;SDS011;8103;51.340;12.326;2022-08-25T04:35:02;15.65;;;12.82;;
15996;SDS011;8103;51.340;12.326;2022-08-25T04:37:30;13.45;;;12.05;;
15996;SDS011;8103;51.340;12.326;2022-08-25T04:39:58;14.35;;;12.02;;
15996;SDS011;8103;51.340;12.326;2022-08-25T04:42:25;12.98;;;11.32;;
15996;SDS011;8103;51.340;12.326;2022-08-25T04:44:52;13.75;;;12.43;;
15996;SDS011;8103;51.340;12.326;2022-08-25T04:47:19;13.93;;;11.88;;
15996;SDS011;8103;51.340;12.326;2022-08-25T04:49:46;12.63;;;11.52;;
15996;SDS011;8103;51.340;12.326;2022-08-25T04:52:14;12.68;;;11.40;;
15996;SDS011;8103;51.340;12.326;2022-08-25T04:54:41;13.52;;;12.13;;
15996;SDS011;8103;51.340;12.326;2022-08-25T04:57:10;14.50;;;12.15;;
15996;SDS011;8103;51.340;12.326;2022-08-25T04:59:37;13.68;;;12.27;;
15996;SDS011;8103;51.340;12.326;2022-08-25T05:02:05;14.35;;;12.95;;
15996;SDS011;8103;51.340;12.326;2022-08-25T05:04:33;14.95;;;13.45;;
15996;SDS011;8103;51.340;12.326;2022-08-25T05:07:01;13.73;;;12.35;;
15996;SDS011;8103;51.340;12.326;2022-08-25T05:09:31;16.10;;;14.50;;
15996;SDS011;8103;51.340;12.326;2022-08-25T05:12:02;14.93;;;13.15;;
15996;SDS011;8103;51.340;12.326;2022-08-25T05:14:30;13.32;;;12.00;;
15996;SDS011;8103;51.340;12.326;2022-08-25T05:16:58;14.32;;;11.88;;
15996;SDS011;8103;51.340;12.326;2022-08-25T05:19:25;13.48;;;12.18;;
15996;SDS011;8103;51.340;12.326;2022-08-25T05:21:53;15.95;;;13.00;;
15996;SDS011;8103;51.340;12.326;2022-08-25T05:24:20;15.20;;;13.13;;
15996;SDS011;8103;51.340;12.326;2022-08-25T05:26:50;13.40;;;12.10;;
15996;SDS011;8103;51.340;12.326;2022-08-25T05:29:17;15.80;;;13.30;;
15996;SDS011;8103;51.340;12.326;2022-08-25T05:31:44;14.60;;;13.10;;
15996;SDS011;8103;51.340;12.326;2022-08-25T05:34:16;15.38;;;12.88;;
15996;SDS011;8103;51.340;12.326;2022-08-25T05:36:44;14.63;;;12.95;;
15996;SDS011;8103;51.340;12.326;2022-08-25T05:39:11;12.43;;;11.32;;
15996;SDS011;8103;51.340;12.326;2022-08-25T05:41:38;17.58;;;13.48;;
15996;SDS011;8103;51.340;12.326;2022-08-25T05:44:05;13.68;;;12.27;;
15996;SDS011;8103;51.340;12.326;2022-08-25T05:46:32;14.77;;;13.23;;
15996;SDS011;8103;51.340;12.326;2022-08-25T05:48:59;15.60;;;14.00;;
15996;SDS011;8103;51.340;12.326;2022-08-25T05:51:26;16.50;;;12.85;;
15996;SDS011;8103;51.340;12.326;2022-08-25T05:53:53;18.08;;;15.35;;
15996;SDS011;8103;51.340;12.326;2022-08-25T05:56:20;14.88;;;13.48;;
15996;SDS011;8103;51.340;12.326;2022-08-25T05:58:47;15.82;;;12.85;;
15996;SDS011;8103;51.340;12.326;2022-08-25T06:01:19;16.98;;;13.85;;
15996;SDS011;8103;51.340;12.326;2022-08-25T06:04:28;14.98;;;12.82;;
15996;SDS011;8103;51.340;12.326;2022-08-25T06:06:55;19.83;;;14.23;;
15996;SDS011;8103;51.340;12.326;2022-08-25T06:09:23;15.13;;;13.63;;
15996;SDS011;8103;51.340;12.326;2022-08-25T06:11:51;14.90;;;13.50;;
15996;SDS011;8103;51.340;12.326;2022-08-25T06:14:20;18.25;;;13.85;;
15996;SDS011;8103;51.340;12.326;2022-08-25T06:16:47;15.70;;;14.07;;
15996;SDS011;8103;51.340;12.326;2022-08-25T06:19:16;19.35;;;13.77;;
15996;SDS011;8103;51.340;12.326;2022-08-25T06:21:43;15.45;;;13.80;;
15996;SDS011;8103;51.340;12.326;2022-08-25T06:24:10;14.88;;;12.90;;
15996;SDS011;8103;51.340;12.326;2022-08-25T06:26:40;13.68;;;12.27;;
15996;SDS011;8103;51.340;12.326;2022-08-25T06:29:07;15.82;;;11.85;;
15996;SDS011;8103;51.340;12.326;2022-08-25T06:31:35;12.50;;;11.27;;
15996;SDS011;8103;51.340;12.326;2022-08-25T06:34:02;14.63;;;12.15;;
15996;SDS011;8103;51.340;12.326;2022-08-25T06:36:28;12.77;;;11.55;;
15996;SDS011;8103;51.340;12.326;2022-08-25T06:38:55;13.63;;;12.00;;
15996;SDS011;8103;51.340;12.326;2022-08-25T06:41:22;14.43;;;13.02;;
15996;SDS011;8103;51.340;12.326;2022-08-25T06:43:50;15.90;;;14.40;;
15996;SDS011;8103;51.340;12.326;2022-08-25T06:46:22;13.98;;;12.35;;
15996;SDS011;8103;51.340;12.326;2022-08-25T06:48:59;13.18;;;11.80;;
15996;SDS011;8103;51.340;12.326;2022-08-25T06:51:26;15.48;;;12.20;;
15996;SDS011;8103;51.340;12.326;2022-08-25T06:53:55;13.95;;;12.60;;
15996;SDS011;8103;51.340;12.326;2022-08-25T06:56:21;20.48;;;13.38;;
15996;SDS011;8103;51.340;12.326;2022-08-25T06:58:49;19.00;;;13.93;;
15996;SDS011;8103;51.340;12.326;2022-08-25T07:01:17;12.50;;;11.30;;
15996;SDS011;8103;51.340;12.326;2022-08-25T07:03:49;16.10;;;11.93;;
15996;SDS011;8103;51.340;12.326;2022-08-25T07:06:17;14.00;;;11.98;;
15996;SDS011;8103;51.340;12.326;2022-08-25T07:08:45;11.95;;;10.85;;
15996;SDS011;8103;51.340;12.326;2022-08-25T07:11:13;13.57;;;10.70;;
15996;SDS011;8103;51.340;12.326;2022-08-25T07:13:41;14.35;;;12.48;;
15996;SDS011;8103;51.340;12.326;2022-08-25T07:16:08;21.95;;;12.57;;
15996;SDS011;8103;51.340;12.326;2022-08-25T07:18:36;13.07;;;11.63;;
15996;SDS011;8103;51.340;12.326;2022-08-25T07:21:03;14.88;;;11.43;;
15996;SDS011;8103;51.340;12.326;2022-08-25T07:23:30;13.02;;;11.80;;
15996;SDS011;8103;51.340;12.326;2022-08-25T07:26:06;12.75;;;11.48;;
15996;SDS011;8103;51.340;12.326;2022-08-25T07:29:03;11.10;;;10.18;;
15996;SDS011;8103;51.340;12.326;2022-08-25T07:31:32;12.00;;;10.70;;
15996;SDS011;8103;51.340;12.326;2022-08-25T07:33:59;13.00;;;11.80;;
15996;SDS011;8103;51.340;12.326;2022-08-25T07:36:45;12.77;;;10.05;;
15996;SDS011;8103;51.340;12.326;2022-08-25T07:39:12;13.25;;;11.90;;
15996;SDS011;8103;51.340;12.326;2022-08-25T07:41:48;12.75;;;10.80;;
15996;SDS011;8103;51.340;12.326;2022-08-25T07:44:17;12.70;;;10.60;;
15996;SDS011;8103;51.340;12.326;2022-08-25T07:46:44;11.15;;;9.93;;
15996;SDS011;8103;51.340;12.326;2022-08-25T07:49:11;16.83;;;11.82;;
15996;SDS011;8103;51.340;12.326;2022-08-25T07:51:42;11.45;;;9.98;;
15996;SDS011;8103;51.340;12.326;2022-08-25T07:54:29;12.25;;;9.77;;
15996;SDS011;8103;51.340;12.326;2022-08-25T07:56:59;12.32;;;9.30;;
15996;SDS011;8103;51.340;12.326;2022-08-25T07:59:26;13.15;;;10.40;;
15996;SDS011;8103;51.340;12.326;2022-08-25T08:02:05;14.52;;;10.05;;
15996;SDS011;8103;51.340;12.326;2022-08-25T08:04:48;13.65;;;9.55;;
15996;SDS011;8103;51.340;12.326;2022-08-25T08:07:20;9.57;;;8.57;;
15996;SDS011;8103;51.340;12.326;2022-08-25T08:09:49;12.13;;;10.20;;
15996;SDS011;8103;51.340;12.326;2022-08-25T08:12:30;9.65;;;8.65;;
15996;SDS011;8103;51.340;12.326;2022-08-25T08:14:59;12.73;;;7.90;;
15996;SDS011;8103;51.340;12.326;2022-08-25T08:17:26;10.32;;;8.77;;
15996;SDS011;8103;51.340;12.326;2022-08-25T08:19:53;8.02;;;7.25;;
15996;SDS011;8103;51.340;12.326;2022-08-25T08:22:20;8.02;;;7.18;;
15996;SDS011;8103;51.340;12.326;2022-08-25T08:24:47;10.60;;;8.15;;
15996;SDS011;8103;51.340;12.326;2022-08-25T08:27:20;12.70;;;8.23;;
15996;SDS011;8103;51.340;12.326;2022-08-25T08:29:48;12.60;;;7.78;;
15996;SDS011;8103;51.340;12.326;2022-08-25T08:32:16;9.48;;;7.53;;
15996;SDS011;8103;51.340;12.326;2022-08-25T08:34:43;15.32;;;8.38;;
15996;SDS011;8103;51.340;12.326;2022-08-25T08:37:12;11.80;;;7.13;;
15996;SDS011;8103;51.340;12.326;2022-08-25T08:39:39;9.95;;;6.70;;
15996;SDS011;8103;51.340;12.326;2022-08-25T08:47:47;11.50;;;7.65;;
15996;SDS011;8103;51.340;12.326;2022-08-25T08:50:29;8.90;;;7.03;;
15996;SDS011;8103;51.340;12.326;2022-08-25T08:53:24;10.20;;;6.97;;
15996;SDS011;8103;51.340;12.326;2022-08-25T08:56:00;10.65;;;7.63;;
15996;SDS011;8103;51.340;12.326;2022-08-25T08:59:02;13.10;;;8.40;;
15996;SDS011;8103;51.340;12.326;2022-08-25T09:01:44;10.52;;;8.00;;
15996;SDS011;8103;51.340;12.326;2022-08-25T09:06:54;9.35;;;7.65;;
15996;SDS011;8103;51.340;12.326;2022-08-25T09:09:25;12.05;;;7.72;;
15996;SDS011;8103;51.340;12.326;2022-08-25T09:12:11;14.43;;;7.63;;
15996;SDS011;8103;51.340;12.326;2022-08-25T09:17:41;13.68;;;7.00;;
15996;SDS011;8103;51.340;12.326;2022-08-25T09:26:20;10.02;;;7.22;;
15996;SDS011;8103;51.340;12.326;2022-08-25T09:29:00;11.68;;;7.47;;
15996;SDS011;8103;51.340;12.326;2022-08-25T09:31:42;12.77;;;7.38;;
15996;SDS011;8103;51.340;12.326;2022-08-25T09:34:11;17.08;;;7.80;;
15996;SDS011;8103;51.340;12.326;2022-08-25T09:36:45;14.40;;;8.52;;
15996;SDS011;8103;51.340;12.326;2022-08-25T09:39:15;16.25;;;7.18;;
15996;SDS011;8103;51.340;12.326;2022-08-25T09:41:45;8.65;;;7.13;;
15996;SDS011;8103;51.340;12.326;2022-08-25T09:44:33;9.05;;;6.82;;
15996;SDS011;8103;51.340;12.326;2022-08-25T09:49:47;11.32;;;7.30;;
15996;SDS011;8103;51.340;12.326;2022-08-25T10:00:19;10.07;;;6.40;;
15996;SDS011;8103;51.340;12.326;2022-08-25T10:03:08;11.95;;;7.18;;
15996;SDS011;8103;51.340;12.326;2022-08-25T10:08:33;12.25;;;6.53;;
15996;SDS011;8103;51.340;12.326;2022-08-25T10:11:10;14.23;;;6.25;;
15996;SDS011;8103;51.340;12.326;2022-08-25T10:13:41;16.45;;;7.15;;
15996;SDS011;8103;51.340;12.326;2022-08-25T10:16:26;12.13;;;6.55;;
15996;SDS011;8103;51.340;12.326;2022-08-25T10:19:04;16.38;;;6.40;;
15996;SDS011;8103;51.340;12.326;2022-08-25T10:21:32;15.20;;;7.53;;
15996;SDS011;8103;51.340;12.326;2022-08-25T10:24:00;13.20;;;6.15;;
15996;SDS011;8103;51.340;12.326;2022-08-25T10:26:44;10.73;;;6.68;;
15996;SDS011;8103;51.340;12.326;2022-08-25T10:33:18;13.80;;;6.88;;
15996;SDS011;8103;51.340;12.326;2022-08-25T10:35:49;12.35;;;6.57;;
15996;SDS011;8103;51.340;12.326;2022-08-25T10:43:42;16.95;;;7.85;;
15996;SDS011;8103;51.340;12.326;2022-08-25T10:48:57;15.15;;;6.78;;
15996;SDS011;8103;51.340;12.326;2022-08-25T10:53:56;13.05;;;6.43;;
15996;SDS011;8103;51.340;12.326;2022-08-25T10:56:49;12.13;;;6.53;;
15996;SDS011;8103;51.340;12.326;2022-08-25T11:02:25;13.63;;;7.47;;
15996;SDS011;8103;51.340;12.326;2022-08-25T11:04:56;10.75;;;5.93;;
15996;SDS011;8103;51.340;12.326;2022-08-25T11:07:52;9.45;;;5.93;;
15996;SDS011;8103;51.340;12.326;2022-08-25T11:10:25;9.32;;;6.13;;
15996;SDS011;8103;51.340;12.326;2022-08-25T11:13:13;13.75;;;5.90;;
15996;SDS011;8103;51.340;12.326;2022-08-25T11:15:54;11.50;;;5.55;;
15996;SDS011;8103;51.340;12.326;2022-08-25T11:18:45;13.55;;;5.65;;
15996;SDS011;8103;51.340;12.326;2022-08-25T11:21:32;15.40;;;6.80;;
15996;SDS011;8103;51.340;12.326;2022-08-25T11:24:21;15.93;;;6.03;;
15996;SDS011;8103;51.340;12.326;2022-08-25T11:26:52;25.75;;;7.25;;
15996;SDS011;8103;51.340;12.326;2022-08-25T11:29:26;10.88;;;4.90;;
15996;SDS011;8103;51.340;12.326;2022-08-25T11:31:58;16.27;;;6.28;;
15996;SDS011;8103;51.340;12.326;2022-08-25T11:34:30;20.98;;;5.97;;
15996;SDS011;8103;51.340;12.326;2022-08-25T11:37:23;21.63;;;5.78;;
15996;SDS011;8103;51.340;12.326;2022-08-25T11:42:49;12.15;;;5.97;;
15996;SDS011;8103;51.340;12.326;2022-08-25T11:48:02;17.60;;;6.57;;
15996;SDS011;8103;51.340;12.326;2022-08-25T11:50:58;16.88;;;6.25;;
15996;SDS011;8103;51.340;12.326;2022-08-25T11:53:35;13.70;;;7.35;;
15996;SDS011;8103;51.340;12.326;2022-08-25T11:58:39;18.45;;;7.70;;
15996;SDS011;8103;51.340;12.326;2022-08-25T12:18:15;15.80;;;6.07;;
15996;SDS011;8103;51.340;12.326;2022-08-25T12:23:33;17.48;;;6.38;;
15996;SDS011;8103;51.340;12.326;2022-08-25T12:26:03;10.85;;;6.28;;
15996;SDS011;8103;51.340;12.326;2022-08-25T12:28:59;18.17;;;6.38;;
15996;SDS011;8103;51.340;12.326;2022-08-25T12:32:13;19.35;;;6.13;;
15996;SDS011;8103;51.340;12.326;2022-08-25T12:35:09;12.60;;;5.72;;
15996;SDS011;8103;51.340;12.326;2022-08-25T12:37:56;16.25;;;6.47;;
15996;SDS011;8103;51.340;12.326;2022-08-25T12:40:38;13.13;;;5.65;;
15996;SDS011;8103;51.340;12.326;2022-08-25T12:45:54;15.07;;;6.53;;
15996;SDS011;8103;51.340;12.326;2022-08-25T12:48:42;14.38;;;6.40;;
15996;SDS011;8103;51.340;12.326;2022-08-25T12:51:22;15.50;;;6.07;;
15996;SDS011;8103;51.340;12.326;2022-08-25T12:54:11;17.45;;;6.28;;
15996;SDS011;8103;51.340;12.326;2022-08-25T12:56:46;16.48;;;6.20;;
15996;SDS011;8103;51.340;12.326;2022-08-25T12:59:37;15.07;;;5.72;;
15996;SDS011;8103;51.340;12.326;2022-08-25T13:02:13;16.90;;;6.30;;
15996;SDS011;8103;51.340;12.326;2022-08-25T13:05:25;15.88;;;5.93;;
15996;SDS011;8103;51.340;12.326;2022-08-25T13:08:25;14.80;;;6.25;;
15996;SDS011;8103;51.340;12.326;2022-08-25T13:11:10;15.35;;;5.30;;
15996;SDS011;8103;51.340;12.326;2022-08-25T13:16:19;14.00;;;5.47;;
15996;SDS011;8103;51.340;12.326;2022-08-25T13:18:52;13.02;;;5.60;;
15996;SDS011;8103;51.340;12.326;2022-08-25T13:21:30;19.38;;;5.65;;
15996;SDS011;8103;51.340;12.326;2022-08-25T13:24:04;13.98;;;5.55;;
15996;SDS011;8103;51.340;12.326;2022-08-25T13:26:37;17.23;;;5.53;;
15996;SDS011;8103;51.340;12.326;2022-08-25T13:31:53;15.43;;;5.85;;
15996;SDS011;8103;51.340;12.326;2022-08-25T13:34:24;16.33;;;5.82;;
15996;SDS011;8103;51.340;12.326;2022-08-25T13:37:06;17.20;;;5.43;;
15996;SDS011;8103;51.340;12.326;2022-08-25T13:40:12;18.50;;;6.25;;
15996;SDS011;8103;51.340;12.326;2022-08-25T13:43:03;16.45;;;6.63;;
15996;SDS011;8103;51.340;12.326;2022-08-25T13:45:40;15.48;;;5.30;;
15996;SDS011;8103;51.340;12.326;2022-08-25T13:48:10;15.50;;;5.45;;
15996;SDS011;8103;51.340;12.326;2022-08-25T13:50:46;21.55;;;7.03;;
15996;SDS011;8103;51.340;12.326;2022-08-25T13:53:24;15.50;;;6.03;;
15996;SDS011;8103;51.340;12.326;2022-08-25T13:55:57;18.25;;;6.10;;
15996;SDS011;8103;51.340;12.326;2022-08-25T13:58:30;17.02;;;5.85;;
15996;SDS011;8103;51.340;12.326;2022-08-25T14:01:08;20.83;;;6.72;;
15996;SDS011;8103;51.340;12.326;2022-08-25T14:03:48;17.60;;;6.65;;
15996;SDS011;8103;51.340;12.326;2022-08-25T14:08:43;27.20;;;6.35;;
15996;SDS011;8103;51.340;12.326;2022-08-25T14:11:14;19.00;;;6.15;;
15996;SDS011;8103;51.340;12.326;2022-08-25T14:14:01;18.85;;;6.70;;
15996;SDS011;8103;51.340;12.326;2022-08-25T14:16:36;14.80;;;5.93;;
15996;SDS011;8103;51.340;12.326;2022-08-25T14:19:15;18.05;;;6.18;;
15996;SDS011;8103;51.340;12.326;2022-08-25T14:21:45;15.43;;;5.97;;
15996;SDS011;8103;51.340;12.326;2022-08-25T14:24:14;18.20;;;6.60;;
15996;SDS011;8103;51.340;12.326;2022-08-25T14:26:43;14.20;;;5.05;;
15996;SDS011;8103;51.340;12.326;2022-08-25T14:29:22;15.30;;;5.90;;
15996;SDS011;8103;51.340;12.326;2022-08-25T14:31:49;16.95;;;6.07;;
15996;SDS011;8103;51.340;12.326;2022-08-25T14:34:18;13.65;;;5.82;;
15996;SDS011;8103;51.340;12.326;2022-08-25T14:36:47;20.52;;;5.85;;
15996;SDS011;8103;51.340;12.326;2022-08-25T14:39:15;14.50;;;5.18;;
15996;SDS011;8103;51.340;12.326;2022-08-25T14:41:42;18.08;;;6.00;;
15996;SDS011;8103;51.340;12.326;2022-08-25T14:44:12;14.55;;;6.38;;
15996;SDS011;8103;51.340;12.326;2022-08-25T14:46:42;12.45;;;5.82;;
15996;SDS011;8103;51.340;12.326;2022-08-25T14:49:15;20.88;;;6.70;;
15996;SDS011;8103;51.340;12.326;2022-08-25T14:51:50;14.65;;;6.22;;
15996;SDS011;8103;51.340;12.326;2022-08-25T14:54:17;29.33;;;14.18;;
15996;SDS011;8103;51.340;12.326;2022-08-25T14:56:45;22.52;;;8.55;;
15996;SDS011;8103;51.340;12.326;2022-08-25T14:59:13;16.08;;;5.85;;
15996;SDS011;8103;51.340;12.326;2022-08-25T15:01:40;16.10;;;7.07;;
15996;SDS011;8103;51.340;12.326;2022-08-25T15:04:09;21.45;;;7.07;;
15996;SDS011;8103;51.340;12.326;2022-08-25T15:06:40;17.13;;;6.75;;
15996;SDS011;8103;51.340;12.326;2022-08-25T15:09:10;29.58;;;7.50;;
15996;SDS011;8103;51.340;12.326;2022-08-25T15:11:39;18.25;;;6.60;;
15996;SDS011;8103;51.340;12.326;2022-08-25T15:14:09;20.70;;;6.75;;
15996;SDS011;8103;51.340;12.326;2022-08-25T15:16:39;20.55;;;7.65;;
15996;SDS011;8103;51.340;12.326;2022-08-25T15:19:12;24.70;;;7.13;;
15996;SDS011;8103;51.340;12.326;2022-08-25T15:21:41;29.20;;;7.90;;
15996;SDS011;8103;51.340;12.326;2022-08-25T15:24:10;18.80;;;7.10;;
15996;SDS011;8103;51.340;12.326;2022-08-25T15:26:52;20.63;;;8.52;;
15996;SDS011;8103;51.340;12.326;2022-08-25T15:29:24;28.75;;;16.00;;
15996;SDS011;8103;51.340;12.326;2022-08-25T15:31:55;24.33;;;10.45;;
15996;SDS011;8103;51.340;12.326;2022-08-25T15:34:22;21.77;;;7.45;;
15996;SDS011;8103;51.340;12.326;2022-08-25T15:36:49;23.92;;;7.70;;
15996;SDS011;8103;51.340;12.326;2022-08-25T15:39:17;20.05;;;7.38;;
15996;SDS011;8103;51.340;12.326;2022-08-25T15:41:45;18.83;;;7.07;;
15996;SDS011;8103;51.340;12.326;2022-08-25T15:44:19;16.33;;;6.97;;
15996;SDS011;8103;51.340;12.326;2022-08-25T15:46:49;16.83;;;6.88;;
15996;SDS011;8103;51.340;12.326;2022-08-25T15:49:16;21.50;;;7.55;;
15996;SDS011;8103;51.340;12.326;2022-08-25T15:51:45;17.98;;;7.43;;
15996;SDS011;8103;51.340;12.326;2022-08-25T15:54:12;20.98;;;6.65;;
15996;SDS011;8103;51.340;12.326;2022-08-25T15:56:41;13.57;;;6.75;;
15996;SDS011;8103;51.340;12.326;2022-08-25T15:59:11;27.27;;;7.28;;
15996;SDS011;8103;51.340;12.326;2022-08-25T16:01:39;21.48;;;7.47;;
15996;SDS011;8103;51.340;12.326;2022-08-25T16:04:07;22.08;;;7.57;;
15996;SDS011;8103;51.340;12.326;2022-08-25T16:06:34;15.13;;;6.82;;
15996;SDS011;8103;51.340;12.326;2022-08-25T16:09:02;17.52;;;7.03;;
15996;SDS011;8103;51.340;12.326;2022-08-25T16:11:31;15.30;;;7.93;;
15996;SDS011;8103;51.340;12.326;2022-08-25T16:14:00;18.70;;;7.57;;
15996;SDS011;8103;51.340;12.326;2022-08-25T16:16:28;18.48;;;7.53;;
15996;SDS011;8103;51.340;12.326;2022-08-25T16:18:56;12.82;;;6.40;;
15996;SDS011;8103;51.340;12.326;2022-08-25T16:21:24;24.67;;;8.30;;
15996;SDS011;8103;51.340;12.326;2022-08-25T16:23:56;19.95;;;7.40;;
15996;SDS011;8103;51.340;12.326;2022-08-25T16:26:27;12.88;;;6.68;;
15996;SDS011;8103;51.340;12.326;2022-08-25T16:28:55;13.65;;;7.65;;